Time;durP1;ratioP1;P1;durP2;ratioP2;P2;SDS_P1;SDS_P2;PMS_P1;PMS_P2;Temp;Humidity;BMP_temperature;BMP_pressure;BME280_temperature;BME280_humidity;BME280_pressure;Samples;Min_cycle;Max_cycle;Signal;HPM_P1;HPM_P2
2020/12/06 00:00:09;;;;;;;13.45;8.05;;;2.00;94.10;;;;;;4979030;28;20478;-84
2020/12/06 00:02:34;;;;;;;11.18;7.43;;;2.00;94.30;;;;;;4978075;28;20026;-84
2020/12/06 00:05:00;;;;;;;14.32;8.60;;;2.00;94.40;;;;;;4978822;28;20416;-84
2020/12/06 00:07:26;;;;;;;12.35;7.68;;;2.00;94.40;;;;;;4978730;28;20076;-84
2020/12/06 00:09:51;;;;;;;10.63;7.43;;;2.00;94.40;;;;;;4978678;28;20031;-85
2020/12/06 00:12:17;;;;;;;11.20;6.72;;;2.00;94.50;;;;;;4978866;28;20026;-84
2020/12/06 00:14:42;;;;;;;11.07;7.40;;;2.00;94.50;;;;;;4978641;28;20033;-84
2020/12/06 00:17:08;;;;;;;16.23;8.98;;;2.00;94.30;;;;;;4995881;28;20034;-84
2020/12/06 00:19:33;;;;;;;11.65;7.70;;;2.00;94.20;;;;;;4978601;28;20474;-84
2020/12/06 00:21:59;;;;;;;12.23;7.30;;;2.00;94.20;;;;;;4978525;28;20497;-84
2020/12/06 00:24:24;;;;;;;11.18;7.25;;;1.90;94.20;;;;;;4978201;28;20042;-84
2020/12/06 00:26:51;;;;;;;10.30;6.15;;;1.90;94.40;;;;;;4978430;28;20065;-85
2020/12/06 00:29:17;;;;;;;13.40;8.43;;;1.90;94.50;;;;;;4978341;28;20022;-85
2020/12/06 00:31:42;;;;;;;12.93;7.25;;;1.90;94.50;;;;;;4978656;28;20130;-85
2020/12/06 00:34:08;;;;;;;10.75;7.32;;;1.90;94.50;;;;;;4995609;28;20030;-85
2020/12/06 00:36:33;;;;;;;15.50;6.75;;;1.90;94.50;;;;;;4996590;28;20113;-85
2020/12/06 00:38:59;;;;;;;10.77;6.88;;;1.90;94.50;;;;;;4997621;28;20109;-85
2020/12/06 00:41:24;;;;;;;13.65;7.47;;;1.90;94.60;;;;;;4997672;28;20022;-85
2020/12/06 00:43:50;;;;;;;11.70;6.80;;;1.80;94.70;;;;;;4997636;28;20071;-85
2020/12/06 00:46:20;;;;;;;10.63;7.03;;;1.80;94.80;;;;;;4997524;28;20500;-85
2020/12/06 00:48:46;;;;;;;;;;;1.90;94.80;;;;;;4997806;28;20386;-85
2020/12/06 00:51:11;;;;;;;8.43;5.70;;;1.80;94.80;;;;;;4997351;28;19912;-85
2020/12/06 00:53:43;;;;;;;10.50;6.28;;;1.80;94.90;;;;;;4997385;28;20098;-85
2020/12/06 00:56:24;;;;;;;12.30;7.20;;;1.80;94.80;;;;;;4997422;28;20522;-85
2020/12/06 00:58:49;;;;;;;12.15;7.72;;;1.80;94.80;;;;;;4997423;28;20080;-84
2020/12/06 01:01:16;;;;;;;9.20;6.00;;;1.80;94.80;;;;;;4997185;28;20501;-84
2020/12/06 01:03:42;;;;;;;8.88;5.53;;;1.80;94.80;;;;;;4997172;28;20062;-85
2020/12/06 01:06:12;;;;;;;10.27;6.38;;;1.80;94.80;;;;;;5014678;28;20061;-85
2020/12/06 01:08:37;;;;;;;9.48;5.68;;;1.80;94.90;;;;;;5014732;28;20014;-85
2020/12/06 01:11:03;;;;;;;10.25;6.30;;;1.90;94.90;;;;;;4997036;28;20481;-85
2020/12/06 01:13:28;;;;;;;10.13;5.78;;;1.80;94.80;;;;;;5014690;28;20037;-85
2020/12/06 01:15:54;;;;;;;9.65;5.88;;;1.80;94.90;;;;;;4996013;28;20032;-84
2020/12/06 01:18:19;;;;;;;8.45;6.03;;;1.70;94.90;;;;;;4996745;28;20026;-85
2020/12/06 01:20:45;;;;;;;10.65;6.10;;;1.80;95.00;;;;;;4996887;28;20115;-85
2020/12/06 01:23:10;;;;;;;9.27;5.63;;;1.80;95.00;;;;;;4996851;28;20048;-85
2020/12/06 01:25:36;;;;;;;11.38;6.45;;;1.80;95.00;;;;;;5014460;28;20034;-85
2020/12/06 01:28:01;;;;;;;11.35;6.00;;;1.80;95.00;;;;;;4996802;28;20022;-85
2020/12/06 01:30:27;;;;;;;10.88;6.43;;;1.70;95.10;;;;;;4996726;28;20029;-84
2020/12/06 01:32:52;;;;;;;13.98;7.03;;;1.70;95.10;;;;;;4996702;28;20032;-85
2020/12/06 01:35:18;;;;;;;15.60;9.75;;;1.70;95.10;;;;;;4988215;28;20057;-85
2020/12/06 01:37:44;;;;;;;17.75;9.18;;;1.70;95.40;;;;;;4977118;28;20033;-85
2020/12/06 01:40:10;;;;;;;13.98;8.88;;;1.70;95.10;;;;;;4977082;28;20049;-85
2020/12/06 01:42:35;;;;;;;13.95;9.05;;;1.70;95.20;;;;;;4977198;28;20474;-84
2020/12/06 01:45:02;;;;;;;15.43;8.85;;;1.70;95.20;;;;;;4976970;28;20055;-84
2020/12/06 01:47:28;;;;;;;13.55;8.35;;;1.70;95.30;;;;;;4976913;28;20022;-85
2020/12/06 01:49:55;;;;;;;12.57;7.72;;;1.70;95.30;;;;;;4976878;28;20027;-84
2020/12/06 01:52:20;;;;;;;14.43;8.73;;;1.70;95.30;;;;;;4994368;28;20050;-85
2020/12/06 01:54:48;;;;;;;16.60;9.15;;;1.70;95.40;;;;;;4994313;28;20513;-85
2020/12/06 01:57:14;;;;;;;16.52;9.18;;;1.70;95.50;;;;;;4976820;28;20030;-84
2020/12/06 01:59:40;;;;;;;18.52;10.13;;;1.60;95.50;;;;;;4976816;28;20036;-85
2020/12/06 02:02:06;;;;;;;13.73;8.88;;;1.60;95.50;;;;;;4976697;28;20478;-84
2020/12/06 02:04:32;;;;;;;16.15;10.05;;;1.60;95.50;;;;;;4976769;28;20080;-85
2020/12/06 02:07:00;;;;;;;14.48;9.65;;;1.70;95.60;;;;;;4976519;28;20423;-84
2020/12/06 02:09:27;;;;;;;16.88;10.55;;;1.60;95.60;;;;;;4976736;28;20154;-84
2020/12/06 02:11:54;;;;;;;13.52;7.97;;;1.60;95.70;;;;;;4976535;28;20022;-85
2020/12/06 02:14:20;;;;;;;15.85;9.65;;;1.70;95.70;;;;;;4976527;28;20121;-85
2020/12/06 02:16:46;;;;;;;13.63;8.88;;;1.70;95.80;;;;;;4976589;28;20113;-85
2020/12/06 02:19:12;;;;;;;12.88;8.50;;;1.70;95.80;;;;;;4976637;28;20037;-85
2020/12/06 02:21:40;;;;;;;15.95;8.52;;;1.70;95.80;;;;;;4976310;28;20027;-85
2020/12/06 02:24:10;;;;;;;12.30;7.88;;;1.70;95.70;;;;;;4976318;28;20528;-85
2020/12/06 02:26:44;;;;;;;12.38;7.10;;;1.80;95.80;;;;;;4975939;28;20030;-85
2020/12/06 02:29:10;;;;;;;12.27;7.97;;;1.70;95.70;;;;;;4976398;28;20150;-85
2020/12/06 02:31:36;;;;;;;11.23;6.65;;;1.80;95.70;;;;;;4976327;28;20076;-85
2020/12/06 02:34:02;;;;;;;10.90;7.47;;;1.80;95.70;;;;;;4976389;28;20054;-84
2020/12/06 02:36:28;;;;;;;9.77;7.15;;;1.80;95.60;;;;;;4993677;28;20481;-85
2020/12/06 02:38:54;;;;;;;11.07;7.07;;;1.80;95.60;;;;;;4995784;28;20029;-85
2020/12/06 02:41:19;;;;;;;10.75;7.18;;;1.80;95.60;;;;;;5013303;28;20358;-85
2020/12/06 02:43:45;;;;;;;10.55;7.20;;;1.70;95.60;;;;;;5013290;28;20465;-85
2020/12/06 02:46:11;;;;;;;13.52;7.88;;;1.80;95.70;;;;;;4995577;28;20030;-85
2020/12/06 02:48:36;;;;;;;11.82;8.10;;;1.70;95.60;;;;;;4995615;28;20026;-83
2020/12/06 02:51:03;;;;;;;9.80;6.93;;;1.80;95.70;;;;;;5013073;28;20065;-85
2020/12/06 02:53:29;;;;;;;17.83;10.30;;;1.70;95.70;;;;;;4995622;28;20056;-85
2020/12/06 02:55:54;;;;;;;17.45;9.70;;;1.70;95.70;;;;;;4995535;28;20127;-85
2020/12/06 02:58:20;;;;;;;16.65;10.48;;;1.70;95.80;;;;;;4995467;28;20029;-85
2020/12/06 03:00:46;;;;;;;17.45;11.98;;;1.70;95.80;;;;;;4995462;28;20026;-85
2020/12/06 03:03:11;;;;;;;15.32;10.82;;;1.70;95.90;;;;;;4995561;28;20021;-84
2020/12/06 03:05:37;;;;;;;17.25;11.15;;;1.70;96.00;;;;;;5012786;28;20105;-84
2020/12/06 03:08:02;;;;;;;15.73;11.60;;;1.60;96.00;;;;;;4995584;28;20113;-85
2020/12/06 03:10:28;;;;;;;15.63;10.20;;;1.60;96.00;;;;;;4995533;28;20032;-85
2020/12/06 03:12:53;;;;;;;16.60;10.20;;;1.60;96.10;;;;;;4995354;28;20028;-85
2020/12/06 03:15:19;;;;;;;14.88;10.15;;;1.60;96.10;;;;;;4995472;28;20049;-85
2020/12/06 03:17:44;;;;;;;20.40;12.23;;;1.60;96.10;;;;;;5012938;28;20500;-84
2020/12/06 03:20:10;;;;;;;16.45;10.73;;;1.60;96.20;;;;;;4995463;28;20050;-85
2020/12/06 03:22:35;;;;;;;14.80;9.85;;;1.60;96.10;;;;;;4995000;28;20099;-85
2020/12/06 03:25:01;;;;;;;15.00;9.95;;;1.60;96.20;;;;;;4995346;28;20124;-84
2020/12/06 03:27:27;;;;;;;15.15;10.48;;;1.70;96.10;;;;;;5012738;28;20032;-85
2020/12/06 03:29:53;;;;;;;15.05;9.32;;;1.60;96.10;;;;;;4995359;28;20026;-85
2020/12/06 03:32:19;;;;;;;15.65;10.68;;;1.60;96.10;;;;;;5012768;28;20030;-85
2020/12/06 03:34:44;;;;;;;16.02;10.40;;;1.70;96.20;;;;;;5009071;28;20477;-85
2020/12/06 03:37:10;;;;;;;16.83;11.82;;;1.70;96.20;;;;;;4975814;28;20033;-84
2020/12/06 03:39:35;;;;;;;19.67;12.13;;;1.70;96.20;;;;;;4978837;28;20027;-84
2020/12/06 03:42:01;;;;;;;17.83;12.20;;;1.70;96.20;;;;;;4979205;28;20121;-85
2020/12/06 03:44:26;;;;;;;16.95;10.80;;;1.70;96.20;;;;;;4979295;28;20061;-84
2020/12/06 03:46:52;;;;;;;16.38;11.75;;;1.70;96.30;;;;;;4979289;28;20022;-85
2020/12/06 03:49:17;;;;;;;18.23;12.63;;;1.70;96.30;;;;;;4979191;28;20466;-85
2020/12/06 03:51:42;;;;;;;15.75;10.85;;;1.60;96.30;;;;;;4978996;28;20035;-85
2020/12/06 03:54:08;;;;;;;16.88;10.93;;;1.60;96.40;;;;;;4979186;28;20061;-85
2020/12/06 03:56:33;;;;;;;17.60;10.48;;;1.70;96.40;;;;;;4978954;28;20021;-85
2020/12/06 03:58:59;;;;;;;15.45;9.57;;;1.70;96.40;;;;;;4979045;28;20019;-85
2020/12/06 04:01:24;;;;;;;16.52;10.25;;;1.70;96.40;;;;;;4978897;28;20018;-85
2020/12/06 04:03:52;;;;;;;16.33;10.40;;;1.70;96.30;;;;;;4996350;28;20101;-85
2020/12/06 04:06:17;;;;;;;17.05;10.57;;;1.70;96.30;;;;;;4978878;28;20026;-85
2020/12/06 04:08:43;;;;;;;16.58;10.00;;;1.70;96.40;;;;;;4996247;28;20030;-85
2020/12/06 04:11:08;;;;;;;18.17;12.10;;;1.70;96.40;;;;;;4978860;28;20030;-84
2020/12/06 04:13:34;;;;;;;18.50;11.82;;;1.70;96.40;;;;;;4978803;28;20029;-85
2020/12/06 04:15:59;;;;;;;14.60;10.35;;;1.70;96.40;;;;;;4978818;28;20081;-85
2020/12/06 04:18:25;;;;;;;14.43;9.80;;;1.70;96.40;;;;;;4995948;28;20062;-84
2020/12/06 04:20:50;;;;;;;18.10;11.38;;;1.80;96.40;;;;;;4978668;28;20030;-85
2020/12/06 04:23:16;;;;;;;15.38;10.52;;;1.70;96.40;;;;;;4978387;28;20093;-85
2020/12/06 04:25:41;;;;;;;17.42;12.55;;;1.70;96.40;;;;;;4995877;28;20030;-85
2020/12/06 04:28:10;;;;;;;16.42;11.32;;;1.80;96.40;;;;;;4978439;28;20026;-85
2020/12/06 04:30:38;;;;;;;17.23;11.30;;;1.80;96.30;;;;;;4978395;28;20073;-85
2020/12/06 04:33:04;;;;;;;19.63;11.80;;;1.80;96.30;;;;;;4978397;28;20439;-85
2020/12/06 04:35:29;;;;;;;20.80;13.52;;;1.90;96.30;;;;;;4988051;28;20060;-85
2020/12/06 04:37:55;;;;;;;19.73;12.85;;;1.90;96.20;;;;;;4997653;28;20030;-84
2020/12/06 04:40:21;;;;;;;19.33;12.60;;;1.90;96.20;;;;;;4997645;28;20116;-85
2020/12/06 04:42:47;;;;;;;18.10;12.35;;;1.80;96.20;;;;;;4997599;28;20062;-84
2020/12/06 04:45:14;;;;;;;18.50;12.52;;;1.90;96.30;;;;;;4997618;28;20022;-85
2020/12/06 04:47:57;;;;;;;18.02;12.30;;;1.90;96.40;;;;;;4997659;28;20022;-85
2020/12/06 04:50:45;;;;;;;17.17;10.93;;;1.90;96.40;;;;;;4997370;28;20500;-84
2020/12/06 04:53:17;;;;;;;17.05;11.18;;;1.90;96.40;;;;;;4997212;28;20033;-85
2020/12/06 04:55:45;;;;;;;17.33;11.30;;;1.90;96.40;;;;;;5015132;28;20022;-84
2020/12/06 04:58:15;;;;;;;15.40;10.93;;;1.90;96.70;;;;;;4997424;28;20037;-85
2020/12/06 05:00:44;;;;;;;19.88;11.65;;;1.90;96.50;;;;;;5014946;28;20025;-84
2020/12/06 05:03:12;;;;;;;18.75;12.07;;;1.90;96.50;;;;;;4997046;28;20123;-85
2020/12/06 05:05:39;;;;;;;18.73;12.93;;;1.90;96.50;;;;;;4996587;28;20034;-85
2020/12/06 05:08:10;;;;;;;16.92;11.98;;;1.90;96.50;;;;;;5014601;28;20037;-84
2020/12/06 05:10:46;;;;;;;17.95;11.73;;;1.90;96.50;;;;;;4997158;28;20026;-85
2020/12/06 05:13:12;;;;;;;18.52;12.07;;;1.90;96.50;;;;;;4997005;28;20022;-84
2020/12/06 05:15:38;;;;;;;16.65;11.05;;;1.90;96.60;;;;;;4997022;28;20061;-85
2020/12/06 05:18:04;;;;;;;22.42;13.00;;;1.90;96.60;;;;;;4996989;28;20135;-84
2020/12/06 05:20:30;;;;;;;20.75;13.27;;;1.90;96.60;;;;;;5014572;28;20026;-85
2020/12/06 05:22:55;;;;;;;19.10;13.13;;;2.00;96.60;;;;;;4996752;28;20049;-84
2020/12/06 05:25:21;;;;;;;19.73;13.10;;;1.90;96.60;;;;;;4996734;28;20046;-85
2020/12/06 05:27:47;;;;;;;17.95;11.68;;;2.00;96.60;;;;;;5014446;28;20112;-84
2020/12/06 05:30:13;;;;;;;19.02;13.50;;;2.00;96.60;;;;;;4996809;28;20137;-85
2020/12/06 05:32:39;;;;;;;19.67;12.52;;;2.00;96.60;;;;;;5014408;28;20088;-84
2020/12/06 05:35:06;;;;;;;19.85;14.25;;;1.90;96.60;;;;;;5007723;28;20026;-84
2020/12/06 05:37:35;;;;;;;21.60;14.90;;;1.90;96.60;;;;;;4977225;28;20117;-85
2020/12/06 05:40:07;;;;;;;20.13;13.43;;;1.90;96.70;;;;;;4976985;28;20080;-84
2020/12/06 05:42:40;;;;;;;23.33;13.73;;;1.90;96.70;;;;;;4994479;28;20089;-84
2020/12/06 05:45:07;;;;;;;21.98;14.18;;;1.90;96.70;;;;;;4976999;28;20054;-85
2020/12/06 05:48:05;;;;;;;21.02;13.55;;;1.90;96.80;;;;;;5111214;27;20347;-84
2020/12/06 05:50:32;;;;;;;22.48;13.85;;;1.90;96.70;;;;;;5110869;28;20058;-84
2020/12/06 05:52:58;;;;;;;21.77;14.30;;;1.90;96.80;;;;;;5110022;28;20479;-85
2020/12/06 05:55:24;;;;;;;21.83;14.73;;;1.90;96.80;;;;;;5109290;28;20119;-84
2020/12/06 05:57:51;;;;;;;20.98;14.50;;;1.90;97.00;;;;;;5109428;28;20028;-85
2020/12/06 06:00:17;;;;;;;20.50;13.60;;;1.90;96.80;;;;;;5109449;28;20028;-85
2020/12/06 06:02:46;;;;;;;22.30;13.80;;;1.90;96.80;;;;;;5109294;28;20379;-85
2020/12/06 06:05:17;;;;;;;22.63;14.43;;;1.90;97.10;;;;;;5109351;28;20080;-84
2020/12/06 06:07:44;;;;;;;21.17;14.52;;;2.00;96.80;;;;;;5109258;28;20028;-84
2020/12/06 06:10:17;;;;;;;25.15;16.13;;;2.00;96.80;;;;;;5109391;28;20019;-84
2020/12/06 06:12:46;;;;;;;22.60;14.88;;;2.00;96.70;;;;;;5109371;28;20032;-84
2020/12/06 06:15:12;;;;;;;24.00;14.88;;;2.00;96.70;;;;;;5109396;28;20027;-84
2020/12/06 06:17:39;;;;;;;21.38;13.85;;;2.00;96.70;;;;;;5109136;28;20027;-84
2020/12/06 06:20:05;;;;;;;21.95;14.93;;;2.00;96.70;;;;;;5109210;28;20024;-84
2020/12/06 06:22:34;;;;;;;24.55;14.85;;;2.00;96.70;;;;;;5108963;28;20031;-84
2020/12/06 06:25:01;;;;;;;23.08;15.23;;;2.00;96.70;;;;;;5108719;28;20024;-84
2020/12/06 06:27:34;;;;;;;23.85;15.07;;;2.00;96.70;;;;;;5110033;28;20459;-84
2020/12/06 06:30:01;;;;;;;24.50;15.77;;;2.00;96.70;;;;;;5109762;27;20023;-85
2020/12/06 06:32:28;;;;;;;26.13;15.43;;;2.00;96.80;;;;;;5108722;28;20016;-85
2020/12/06 06:34:53;;;;;;;24.98;16.02;;;2.00;96.70;;;;;;5109721;28;20028;-84
2020/12/06 06:37:19;;;;;;;23.25;15.35;;;2.00;96.70;;;;;;5108026;28;20035;-84
2020/12/06 06:39:45;;;;;;;25.98;15.95;;;2.00;96.80;;;;;;5109710;28;20028;-85
2020/12/06 06:42:15;;;;;;;22.63;16.17;;;2.00;96.80;;;;;;5107872;28;20395;-84
2020/12/06 06:44:42;;;;;;;23.10;16.15;;;2.00;96.80;;;;;;5108352;28;20123;-84
2020/12/06 06:47:10;;;;;;;25.38;16.17;;;2.00;96.80;;;;;;5108330;28;20446;-84
2020/12/06 06:49:55;;;;;;;24.23;16.40;;;2.00;96.80;;;;;;5109675;28;20027;-84
2020/12/06 06:52:23;;;;;;;25.90;15.18;;;2.00;96.80;;;;;;5108323;28;20020;-84
2020/12/06 06:54:51;;;;;;;27.83;15.80;;;1.90;96.90;;;;;;5108280;28;20111;-84
2020/12/06 06:57:18;;;;;;;25.05;15.23;;;1.90;96.90;;;;;;5108129;28;20032;-84
2020/12/06 06:59:46;;;;;;;25.48;15.98;;;1.90;96.90;;;;;;5094419;28;20126;-84
2020/12/06 07:02:33;;;;;;;22.63;15.43;;;2.00;97.00;;;;;;5094614;28;20407;-84
2020/12/06 07:05:00;;;;;;;26.30;15.98;;;2.00;97.00;;;;;;5095723;28;20486;-84
2020/12/06 07:07:39;;;;;;;25.85;16.60;;;1.90;97.00;;;;;;5095708;28;20103;-84
2020/12/06 07:10:09;;;;;;;26.02;16.88;;;2.00;97.00;;;;;;5094464;28;20020;-84
2020/12/06 07:12:56;;;;;;;28.65;17.00;;;2.00;97.00;;;;;;5094254;28;20028;-84
2020/12/06 07:15:23;;;;;;;26.33;17.33;;;2.00;97.00;;;;;;5094190;28;20024;-84
2020/12/06 07:17:51;;;;;;;28.05;17.35;;;2.00;97.00;;;;;;5094485;28;20031;-84
2020/12/06 07:20:18;;;;;;;26.65;17.25;;;2.00;97.10;;;;;;5095495;28;20058;-84
2020/12/06 07:22:46;;;;;;;26.80;17.17;;;2.00;97.00;;;;;;5094098;28;20064;-84
2020/12/06 07:25:13;;;;;;;25.88;15.85;;;2.00;97.00;;;;;;5093402;28;20028;-86
2020/12/06 07:27:38;;;;;;;23.02;14.52;;;2.10;97.10;;;;;;5093709;28;20020;-86
2020/12/06 07:30:07;;;;;;;23.83;15.30;;;2.10;97.10;;;;;;5093648;28;20020;-86
2020/12/06 07:32:33;;;;;;;20.85;14.30;;;2.10;97.00;;;;;;5090968;28;20023;-85
2020/12/06 07:34:59;;;;;;;27.58;16.75;;;2.10;97.00;;;;;;5092231;28;20070;-85
2020/12/06 07:37:24;;;;;;;25.90;16.75;;;2.10;97.00;;;;;;5088349;28;20024;-86
2020/12/06 07:39:50;;;;;;;23.50;14.73;;;2.10;97.00;;;;;;5087506;28;20028;-86
2020/12/06 07:42:27;;;;;;;19.70;13.15;;;2.20;97.10;;;;;;5084352;28;20029;-86
2020/12/06 07:44:57;;;;;;;24.00;14.50;;;2.20;97.00;;;;;;5083566;28;20115;-86
2020/12/06 07:47:23;;;;;;;22.13;13.68;;;2.20;97.00;;;;;;5089906;28;20071;-85
2020/12/06 07:49:59;;;;;;;25.08;14.77;;;2.20;97.00;;;;;;5093269;28;20510;-85
2020/12/06 07:52:26;;;;;;;24.23;14.55;;;2.20;97.00;;;;;;5092373;28;20024;-86
2020/12/06 07:54:59;;;;;;;21.60;14.25;;;2.20;97.00;;;;;;5094248;28;20093;-86
2020/12/06 07:57:34;;;;;;;22.38;13.52;;;2.20;97.00;;;;;;5091146;28;20024;-86
2020/12/06 08:00:01;;;;;;;20.52;13.18;;;2.30;97.00;;;;;;5092786;28;20031;-86
2020/12/06 08:02:33;;;;;;;21.30;12.13;;;2.30;97.00;;;;;;5093711;28;20140;-86
2020/12/06 08:05:00;;;;;;;21.92;13.35;;;2.30;97.00;;;;;;5093479;28;20440;-86
2020/12/06 08:07:31;;;;;;;24.70;15.25;;;2.40;97.00;;;;;;5093363;28;20028;-86
2020/12/06 08:10:00;;;;;;;21.30;13.50;;;2.40;96.90;;;;;;5093412;28;20028;-86
2020/12/06 08:12:29;;;;;;;22.95;14.50;;;2.40;97.00;;;;;;5093146;28;20016;-86
2020/12/06 08:15:11;;;;;;;22.20;12.95;;;2.40;96.90;;;;;;5092942;28;20475;-86
2020/12/06 08:17:43;;;;;;;22.83;13.32;;;2.50;96.90;;;;;;5093301;28;20035;-86
2020/12/06 08:20:10;;;;;;;20.80;13.63;;;2.50;96.80;;;;;;5093332;28;20026;-87
2020/12/06 08:23:02;;;;;;;19.15;12.32;;;2.50;97.10;;;;;;5095162;28;20047;-86
2020/12/06 08:25:46;;;;;;;18.88;11.85;;;2.60;96.80;;;;;;5092966;28;20491;-87
2020/12/06 08:28:18;;;;;;;16.30;11.27;;;2.60;96.80;;;;;;5092911;28;20048;-87
2020/12/06 08:30:44;;;;;;;18.08;11.13;;;2.60;96.80;;;;;;5090575;28;20031;-86
2020/12/06 08:33:09;;;;;;;18.98;12.30;;;2.60;96.80;;;;;;5094046;28;20095;-86
2020/12/06 08:35:43;;;;;;;24.95;13.48;;;2.70;96.80;;;;;;5092210;28;20066;-87
2020/12/06 08:38:28;;;;;;;21.65;12.38;;;2.70;96.70;;;;;;5092268;28;20016;-87
2020/12/06 08:41:00;;;;;;;20.50;11.70;;;2.70;96.70;;;;;;5092398;28;20066;-86
2020/12/06 08:43:48;;;;;;;20.40;12.38;;;2.80;96.80;;;;;;5092084;28;20107;-86
2020/12/06 08:46:16;;;;;;;18.17;11.00;;;2.80;96.70;;;;;;5090802;28;20048;-87
2020/12/06 08:48:42;;;;;;;19.60;11.93;;;2.80;96.80;;;;;;5092535;28;20044;-87
2020/12/06 08:51:28;;;;;;;19.27;12.27;;;2.80;96.80;;;;;;5091683;28;20052;-87
2020/12/06 08:53:54;;;;;;;22.13;12.60;;;2.80;96.70;;;;;;5090628;28;20024;-86
2020/12/06 08:56:37;;;;;;;20.65;13.05;;;2.80;96.80;;;;;;5092212;28;20016;-86
2020/12/06 08:59:10;;;;;;;22.80;14.93;;;2.80;96.90;;;;;;5092245;28;20024;-86
2020/12/06 09:01:53;;;;;;;21.80;13.25;;;2.80;96.90;;;;;;5092021;28;20020;-87
2020/12/06 09:04:19;;;;;;;20.77;11.90;;;2.90;96.80;;;;;;5088358;28;20168;-87
2020/12/06 09:07:05;;;;;;;17.70;11.80;;;2.90;96.80;;;;;;5091214;28;20039;-88
2020/12/06 09:10:13;;;;;;;;;;;;;;;;;;;;;
2020/12/06 09:20:27;;;;;;;19.80;12.02;;;3.00;96.60;;;;;;5104489;28;20096;-89
2020/12/06 09:26:51;;;;;;;19.00;12.10;;;3.00;96.60;;;;;;5112206;28;20111;-88
2020/12/06 09:29:34;;;;;;;19.08;12.07;;;3.00;96.70;;;;;;5078082;28;20356;-88
2020/12/06 09:32:36;;;;;;;18.58;11.30;;;3.00;96.70;;;;;;5095295;28;20032;-89
2020/12/06 09:35:20;;;;;;;20.90;12.20;;;3.10;96.90;;;;;;5087849;28;20125;-89
2020/12/06 09:38:13;;;;;;;20.85;12.20;;;3.10;96.70;;;;;;5073302;28;20032;-89
2020/12/06 09:40:39;;;;;;;19.08;12.52;;;3.20;96.60;;;;;;5083535;28;20043;-89
2020/12/06 09:43:04;;;;;;;19.23;12.35;;;3.20;96.70;;;;;;5075755;28;20036;-90
2020/12/06 09:45:30;;;;;;;20.85;12.80;;;3.20;96.60;;;;;;5075348;28;20110;-89
2020/12/06 09:48:09;;;;;;;21.95;13.25;;;3.30;96.60;;;;;;5084047;28;20123;-89
2020/12/06 09:50:43;;;;;;;21.10;13.27;;;3.30;96.50;;;;;;5062611;28;20020;-90
2020/12/06 09:53:12;;;;;;;20.55;12.77;;;3.30;96.50;;;;;;5092256;28;20032;-91
2020/12/06 09:55:40;;;;;;;17.98;12.30;;;3.40;96.50;;;;;;5092763;28;20387;-91
2020/12/06 09:58:14;;;;;;;19.27;12.40;;;3.40;96.40;;;;;;5093040;28;20038;-91
2020/12/06 10:00:43;;;;;;;22.58;15.23;;;3.50;96.40;;;;;;5092695;28;20047;-93
2020/12/06 10:03:20;;;;;;;26.33;15.63;;;3.50;96.40;;;;;;5092846;28;20028;-91
2020/12/06 10:05:56;;;;;;;23.50;16.05;;;3.50;96.30;;;;;;5093695;28;20522;-92
2020/12/06 10:08:33;;;;;;;24.45;15.02;;;3.50;96.30;;;;;;5094112;28;20020;-93
2020/12/06 10:11:21;;;;;;;22.45;14.18;;;3.50;96.40;;;;;;5095925;28;20414;-92
2020/12/06 10:32:18;;;;;;;20.45;13.38;;;3.70;96.50;;;;;;5076998;28;20053;-90
2020/12/06 10:34:43;;;;;;;21.85;13.98;;;3.90;96.50;;;;;;5072410;28;20016;-86
2020/12/06 10:37:09;;;;;;;24.33;13.90;;;3.90;96.50;;;;;;5057206;28;20395;-85
2020/12/06 10:39:34;;;;;;;21.65;13.60;;;4.00;96.50;;;;;;5060960;28;20036;-86
2020/12/06 10:42:00;;;;;;;24.85;15.18;;;4.00;96.40;;;;;;5059236;28;20016;-85
2020/12/06 10:44:25;;;;;;;25.48;17.90;;;4.10;96.40;;;;;;5061443;28;20561;-85
2020/12/06 10:46:52;;;;;;;31.70;21.27;;;4.10;96.30;;;;;;5077935;28;20036;-85
2020/12/06 10:49:18;;;;;;;29.58;18.17;;;4.00;96.20;;;;;;5058326;28;20090;-86
2020/12/06 10:51:44;;;;;;;30.13;19.58;;;4.00;96.30;;;;;;5055671;28;20013;-86
2020/12/06 10:54:11;;;;;;;26.67;17.88;;;4.00;96.30;;;;;;5075736;28;20456;-86
2020/12/06 10:56:37;;;;;;;25.55;16.33;;;4.00;96.40;;;;;;5057621;28;20138;-86
2020/12/06 10:59:04;;;;;;;28.85;17.50;;;4.00;96.50;;;;;;5057562;28;20025;-86
2020/12/06 11:01:31;;;;;;;22.23;14.15;;;4.10;96.50;;;;;;5057417;28;20020;-86
2020/12/06 11:03:57;;;;;;;23.05;15.00;;;4.20;96.50;;;;;;5076661;28;20464;-85
2020/12/06 11:06:24;;;;;;;23.20;14.40;;;4.30;96.50;;;;;;5056016;28;20403;-85
2020/12/06 11:08:50;;;;;;;22.05;12.82;;;4.40;96.50;;;;;;5057415;28;20104;-86
2020/12/06 11:11:17;;;;;;;24.35;15.90;;;4.40;96.50;;;;;;5055316;28;20028;-86
2020/12/06 11:13:43;;;;;;;24.33;15.60;;;4.50;96.40;;;;;;5057115;28;20013;-86
2020/12/06 11:16:09;;;;;;;21.95;14.55;;;4.60;96.40;;;;;;5074197;28;20075;-86
2020/12/06 11:18:35;;;;;;;25.20;15.02;;;4.60;96.30;;;;;;5056857;28;20021;-86
2020/12/06 11:21:02;;;;;;;24.65;15.10;;;4.60;96.20;;;;;;5074976;28;20138;-85
2020/12/06 11:23:27;;;;;;;21.00;13.98;;;4.70;96.20;;;;;;5056992;28;20023;-86
2020/12/06 11:25:53;;;;;;;21.08;13.90;;;4.70;96.10;;;;;;5057072;28;20020;-86
2020/12/06 11:28:20;;;;;;;24.02;15.45;;;4.70;96.20;;;;;;5056760;28;20021;-86
2020/12/06 11:30:45;;;;;;;25.70;16.80;;;4.70;96.10;;;;;;5056715;28;20512;-85
2020/12/06 11:33:11;;;;;;;24.92;16.13;;;4.70;96.00;;;;;;5056838;28;20040;-86
2020/12/06 11:35:37;;;;;;;24.23;16.17;;;4.70;96.00;;;;;;5056832;28;20514;-86
2020/12/06 11:38:03;;;;;;;24.17;16.23;;;4.70;96.00;;;;;;5056521;28;20094;-86
2020/12/06 11:40:28;;;;;;;25.05;16.58;;;4.80;95.90;;;;;;5056929;28;20404;-86
2020/12/06 11:42:54;;;;;;;21.67;15.10;;;4.70;95.90;;;;;;5057140;28;20028;-87
2020/12/06 11:45:19;;;;;;;24.05;16.27;;;4.70;95.90;;;;;;5056022;28;20032;-86
2020/12/06 11:47:45;;;;;;;23.45;15.23;;;4.80;95.90;;;;;;5056468;28;20032;-85
2020/12/06 11:50:10;;;;;;;26.52;16.67;;;4.80;96.00;;;;;;5063549;28;20111;-85
2020/12/06 11:52:36;;;;;;;25.88;16.55;;;4.80;96.00;;;;;;5074294;28;20025;-87
2020/12/06 11:55:01;;;;;;;22.42;14.30;;;4.80;96.00;;;;;;5055971;28;20103;-84
2020/12/06 11:57:27;;;;;;;27.88;16.15;;;4.80;96.00;;;;;;5055753;28;20479;-87
2020/12/06 11:59:53;;;;;;;25.02;16.13;;;4.80;96.00;;;;;;5073910;28;20039;-87
2020/12/06 12:02:18;;;;;;;24.17;14.73;;;4.80;96.00;;;;;;5074109;28;20020;-88
2020/12/06 12:04:44;;;;;;;22.63;14.35;;;4.90;96.00;;;;;;5056202;28;20402;-87
2020/12/06 12:07:09;;;;;;;23.67;14.48;;;4.90;96.00;;;;;;5055863;28;20111;-87
2020/12/06 12:09:35;;;;;;;20.55;15.10;;;4.90;96.00;;;;;;5055333;28;20027;-86
2020/12/06 12:12:01;;;;;;;24.92;16.23;;;4.90;96.00;;;;;;5056319;28;20526;-86
2020/12/06 12:14:26;;;;;;;22.27;15.38;;;4.90;96.10;;;;;;5055284;28;20024;-86
2020/12/06 12:16:52;;;;;;;24.38;14.98;;;4.90;96.10;;;;;;5055279;28;20132;-86
2020/12/06 12:19:18;;;;;;;22.77;15.30;;;4.90;96.10;;;;;;5051950;28;20020;-87
2020/12/06 12:21:43;;;;;;;26.73;16.45;;;5.00;96.20;;;;;;5055356;28;20021;-87
2020/12/06 12:24:09;;;;;;;23.58;15.32;;;5.00;96.20;;;;;;5055051;28;20028;-87
2020/12/06 12:26:34;;;;;;;21.17;14.32;;;4.90;96.20;;;;;;5052465;28;20078;-87
2020/12/06 12:29:00;;;;;;;23.83;16.50;;;4.90;96.30;;;;;;5052330;28;20032;-87
2020/12/06 12:31:27;;;;;;;25.13;16.77;;;5.00;96.30;;;;;;5055209;28;20051;-87
2020/12/06 12:33:53;;;;;;;23.02;15.45;;;5.00;96.30;;;;;;5054829;28;20502;-87
2020/12/06 12:36:18;;;;;;;25.35;16.05;;;5.00;96.30;;;;;;5072625;28;20028;-85
2020/12/06 12:38:44;;;;;;;26.58;17.42;;;5.00;96.30;;;;;;5072797;28;20020;-87
2020/12/06 12:41:09;;;;;;;22.63;14.95;;;5.00;96.60;;;;;;5070273;28;20112;-87
2020/12/06 12:43:35;;;;;;;23.10;15.38;;;5.00;96.30;;;;;;5053292;28;20028;-86
2020/12/06 12:46:00;;;;;;;23.05;15.25;;;5.00;96.30;;;;;;5050165;28;20035;-87
2020/12/06 12:48:26;;;;;;;22.77;15.50;;;5.00;96.30;;;;;;5054299;28;20023;-87
2020/12/06 12:50:52;;;;;;;70.75;39.10;;;5.00;96.30;;;;;;5049565;28;20033;-87
2020/12/06 12:53:17;;;;;;;178.77;92.95;;;5.00;96.30;;;;;;5069523;28;20066;-87
2020/12/06 12:55:43;;;;;;;330.90;169.95;;;5.00;96.30;;;;;;5048640;28;20028;-87
2020/12/06 12:58:08;;;;;;;178.52;101.78;;;5.00;96.30;;;;;;5049734;28;20043;-87
2020/12/06 13:00:34;;;;;;;102.78;62.47;;;5.00;96.30;;;;;;5045265;28;20025;-87
2020/12/06 13:02:59;;;;;;;59.58;36.58;;;5.00;96.30;;;;;;5068825;28;20027;-87
2020/12/06 13:05:25;;;;;;;65.15;38.03;;;5.00;96.30;;;;;;5049801;28;20054;-87
2020/12/06 13:07:51;;;;;;;35.55;23.70;;;5.00;96.20;;;;;;5049318;28;20047;-86
2020/12/06 13:10:16;;;;;;;37.03;23.73;;;5.00;96.10;;;;;;5068827;28;20021;-87
2020/12/06 13:12:42;;;;;;;44.50;30.52;;;5.00;96.10;;;;;;5047738;28;20111;-87
2020/12/06 13:15:08;;;;;;;33.85;22.60;;;5.10;96.20;;;;;;5051307;28;20448;-87